createdAt,value
2023-02-03T00:03:28.344Z,42.66
2023-02-03T00:08:31.303Z,42.79
2023-02-03T00:13:35.495Z,42.66
2023-02-03T00:18:39.149Z,42.85
2023-02-03T00:23:41.931Z,42.93
2023-02-03T00:28:46.034Z,42.83
2023-02-03T00:33:48.921Z,42.90
2023-02-03T00:38:53.646Z,42.75
2023-02-03T00:43:57.825Z,42.86
2023-02-03T00:49:00.651Z,42.87
2023-02-03T00:54:04.486Z,42.81
2023-02-03T00:59:08.685Z,42.69
2023-02-03T01:04:11.430Z,42.89
2023-02-03T01:09:14.413Z,42.88
2023-02-03T01:14:18.739Z,43.10
2023-02-03T01:19:21.569Z,42.91
2023-02-03T01:24:24.339Z,42.95
2023-02-03T01:29:28.665Z,42.90
2023-02-03T01:34:31.436Z,42.90
2023-02-03T01:39:35.164Z,43.00
2023-02-03T01:44:44.362Z,43.15
2023-02-03T01:49:49.745Z,43.09
2023-02-03T01:54:52.758Z,43.01
2023-02-03T01:59:57.093Z,42.94
2023-02-03T02:05:03.145Z,43.10
2023-02-03T02:10:06.591Z,43.15
2023-02-03T02:15:11.812Z,43.25
2023-02-03T02:20:45.845Z,43.44
2023-02-03T02:26:03.224Z,43.13
2023-02-03T02:31:41.878Z,43.38
2023-02-03T02:36:50.116Z,43.67
2023-02-03T02:41:56.938Z,43.52
2023-02-03T02:47:03.202Z,43.45
2023-02-03T02:52:06.750Z,43.27
2023-02-03T02:57:11.054Z,43.45
2023-02-03T03:02:15.424Z,43.45
2023-02-03T03:07:19.527Z,43.49
2023-02-03T03:12:23.620Z,43.46
2023-02-03T03:17:29.769Z,43.07
2023-02-03T03:22:34.761Z,43.37
2023-02-03T03:27:39.010Z,43.47
2023-02-03T03:32:43.141Z,43.25
2023-02-03T03:37:47.077Z,43.25
2023-02-03T03:42:51.692Z,43.60
2023-02-03T03:47:58.223Z,43.79
2023-02-03T03:53:01.513Z,43.49
2023-02-03T03:58:05.783Z,43.81
2023-02-03T04:03:12.829Z,43.93
2023-02-03T04:08:15.633Z,44.02
2023-02-03T04:13:20.437Z,43.78
2023-02-03T04:18:24.601Z,43.85
2023-02-03T04:23:27.535Z,43.86
2023-02-03T04:28:30.335Z,44.15
2023-02-03T04:33:34.491Z,44.14
2023-02-03T04:38:37.279Z,44.09
2023-02-03T04:43:40.077Z,43.82
2023-02-03T04:48:44.214Z,43.96
2023-02-03T04:53:46.989Z,44.13
2023-02-03T04:58:49.730Z,44.05
2023-02-03T05:03:53.831Z,44.34
2023-02-03T05:08:56.659Z,43.95
2023-02-03T05:13:59.455Z,44.02
2023-02-03T05:19:03.635Z,44.28
2023-02-03T05:24:08.028Z,44.27
2023-02-03T05:29:11.751Z,44.28
2023-02-03T05:34:15.905Z,44.17
2023-02-03T05:39:18.677Z,44.30
2023-02-03T05:44:21.842Z,44.25
2023-02-03T05:49:26.129Z,44.43
2023-02-03T05:54:29.001Z,44.15
2023-02-03T05:59:31.761Z,44.54
2023-02-03T06:04:35.914Z,44.43
2023-02-03T06:09:38.706Z,44.30
2023-02-03T06:14:41.711Z,44.40
2023-02-03T06:19:45.932Z,44.43
2023-02-03T06:24:49.053Z,44.46
2023-02-03T06:29:51.959Z,44.87
2023-02-03T06:34:56.133Z,44.74
2023-02-03T06:39:58.900Z,44.82
2023-02-03T06:45:01.706Z,44.84
2023-02-03T06:50:06.648Z,44.75
2023-02-03T06:55:09.775Z,44.72
2023-02-03T07:00:16.749Z,44.94
2023-02-03T07:05:22.351Z,45.03
2023-02-03T07:10:25.420Z,45.10
2023-02-03T07:15:28.383Z,45.19
2023-02-03T07:20:32.989Z,44.93
2023-02-03T07:25:35.904Z,45.18
2023-02-03T07:30:38.843Z,45.06
2023-02-03T07:35:43.280Z,45.07
2023-02-03T07:40:46.170Z,44.66
2023-02-03T07:45:49.217Z,44.10
2023-02-03T07:50:53.597Z,44.24
2023-02-03T07:55:56.423Z,43.80
2023-02-03T08:00:59.604Z,40.55
2023-02-03T08:06:03.833Z,41.08
2023-02-03T08:11:06.851Z,42.18
2023-02-03T08:16:09.731Z,42.23
2023-02-03T08:21:13.982Z,41.73
2023-02-03T08:26:17.166Z,42.02
2023-02-03T08:31:20.012Z,41.66
2023-02-03T08:36:24.303Z,41.81
2023-02-03T08:41:27.095Z,41.74
2023-02-03T08:46:30.048Z,41.98
2023-02-03T08:51:34.255Z,41.70
2023-02-03T08:56:36.992Z,41.63
2023-02-03T09:01:40.712Z,41.69
2023-02-03T09:06:44.907Z,41.90
2023-02-03T09:11:47.913Z,41.78
2023-02-03T09:16:50.774Z,41.81
2023-02-03T09:21:56.699Z,41.84
2023-02-03T09:27:00.998Z,41.53
2023-02-03T09:32:07.757Z,41.76
2023-02-03T09:37:11.958Z,41.50
2023-02-03T09:42:29.723Z,41.31
2023-02-03T09:47:35.289Z,41.52
2023-02-03T09:52:40.340Z,41.28
2023-02-03T09:57:45.253Z,41.49
2023-02-03T10:02:54.845Z,41.37
2023-02-03T10:08:03.585Z,41.47
2023-02-03T10:13:11.297Z,41.54
2023-02-03T10:18:14.963Z,41.11
2023-02-03T10:23:21.036Z,41.30
2023-02-03T10:28:25.610Z,41.10
2023-02-03T10:33:29.344Z,41.61
2023-02-03T10:38:44.932Z,41.63
2023-02-03T10:43:52.595Z,42.32
2023-02-03T10:48:55.512Z,42.69
2023-02-03T10:53:59.729Z,43.70
2023-02-03T10:59:02.589Z,44.48
2023-02-03T11:04:06.301Z,45.44
2023-02-03T11:09:25.127Z,45.31
2023-02-03T11:14:30.104Z,45.39
2023-02-03T11:19:33.131Z,45.50
2023-02-03T11:24:40.567Z,45.34
2023-02-03T11:29:44.458Z,45.52
2023-02-03T11:34:48.219Z,46.05
2023-02-03T11:39:52.376Z,45.96
2023-02-03T11:45:13.322Z,45.68
2023-02-03T11:50:22.322Z,45.81
2023-02-03T11:55:42.364Z,45.69
2023-02-03T12:00:48.565Z,45.30
2023-02-03T12:06:16.641Z,45.30
2023-02-03T12:11:26.520Z,44.84
2023-02-03T12:16:49.599Z,44.98
2023-02-03T12:21:53.484Z,45.05
2023-02-03T12:27:03.059Z,45.02
2023-02-03T12:32:08.594Z,44.97
2023-02-03T12:37:13.932Z,45.02
2023-02-03T12:42:20.009Z,44.94
2023-02-03T12:47:26.780Z,44.69
2023-02-03T12:52:32.459Z,44.78
2023-02-03T12:57:39.002Z,44.93
2023-02-03T13:02:46.670Z,45.05
2023-02-03T13:07:50.608Z,45.14
2023-02-03T13:12:57.176Z,45.53
2023-02-03T13:18:02.335Z,45.47
2023-02-03T13:23:06.960Z,45.36
2023-02-03T13:28:15.660Z,45.37
2023-02-03T13:34:00.695Z,45.60
2023-02-03T13:39:15.226Z,45.29
2023-02-03T13:44:20.433Z,45.04
2023-02-03T13:49:24.878Z,44.81
2023-02-03T13:54:29.949Z,44.82
2023-02-03T13:59:42.558Z,44.71
2023-02-03T14:04:55.049Z,44.65
2023-02-03T14:10:17.606Z,45.31
2023-02-03T14:15:39.414Z,44.75
2023-02-03T14:20:48.942Z,44.55
2023-02-03T14:25:54.045Z,44.99
2023-02-03T14:31:10.771Z,45.06
2023-02-03T14:36:28.461Z,45.01
2023-02-03T14:41:37.735Z,45.45
2023-02-03T14:46:47.550Z,45.28
2023-02-03T14:52:01.366Z,45.25
2023-02-03T14:57:18.329Z,45.31
2023-02-03T15:02:25.756Z,45.11
2023-02-03T15:07:38.996Z,45.10
2023-02-03T15:12:45.738Z,44.71
2023-02-03T15:17:50.009Z,44.72
2023-02-03T15:22:54.126Z,44.63
2023-02-03T15:28:10.799Z,44.38
2023-02-03T15:33:16.126Z,44.41
2023-02-03T15:38:20.875Z,44.31
2023-02-03T15:43:25.415Z,44.03
2023-02-03T15:48:34.166Z,44.06
2023-02-03T15:53:47.595Z,43.92
2023-02-03T15:58:50.899Z,43.96
2023-02-03T16:03:55.876Z,43.72
2023-02-03T16:08:59.537Z,43.76
2023-02-03T16:14:03.338Z,43.67
2023-02-03T16:19:13.273Z,43.40
2023-02-03T16:24:34.086Z,43.24
2023-02-03T16:29:54.767Z,43.25
2023-02-03T16:35:16.333Z,42.79
2023-02-03T16:40:38.517Z,42.97
2023-02-03T16:45:58.902Z,42.61
2023-02-03T16:51:05.118Z,42.38
2023-02-03T16:56:08.735Z,42.48
2023-02-03T17:01:11.716Z,42.44
2023-02-03T17:06:16.021Z,42.56
2023-02-03T17:11:20.349Z,42.57
2023-02-03T17:16:24.260Z,42.29
2023-02-03T17:21:29.427Z,42.27
2023-02-03T17:26:34.186Z,41.73
2023-02-03T17:31:37.088Z,41.92
2023-02-03T17:36:41.310Z,41.98
2023-02-03T17:57:47.086Z,41.53
2023-02-03T18:02:50.671Z,41.27
2023-02-03T18:07:54.798Z,40.95
2023-02-03T18:12:57.667Z,40.96
2023-02-03T18:18:00.549Z,40.69
2023-02-03T18:23:04.790Z,40.84
2023-02-03T18:28:07.585Z,40.74
2023-02-03T18:33:10.342Z,40.37
2023-02-03T18:38:14.741Z,40.57
2023-02-03T18:43:17.566Z,40.57
2023-02-03T18:48:20.371Z,40.57
2023-02-03T18:53:24.484Z,39.97
2023-02-03T18:58:27.338Z,40.22
2023-02-03T19:03:30.208Z,40.13
2023-02-03T19:08:34.427Z,40.26
2023-02-03T19:13:37.313Z,39.95
2023-02-03T19:18:40.105Z,39.95
2023-02-03T19:23:44.334Z,39.85
2023-02-03T19:28:47.292Z,39.80
2023-02-03T19:33:50.521Z,39.39
2023-02-03T19:38:54.699Z,39.83
2023-02-03T19:43:57.613Z,39.60
2023-02-03T19:49:00.425Z,39.66
2023-02-03T19:54:04.687Z,39.57
2023-02-03T19:59:07.679Z,39.40
2023-02-03T20:04:10.474Z,39.37
2023-02-03T20:09:14.698Z,39.47
2023-02-03T20:14:19.187Z,39.76
2023-02-03T20:19:22.229Z,39.24
2023-02-03T20:24:26.411Z,39.49
2023-02-03T20:29:29.257Z,39.40
2023-02-03T20:34:32.039Z,39.52
2023-02-03T20:39:36.244Z,39.42
2023-02-03T20:44:39.066Z,39.03
2023-02-03T20:49:41.913Z,39.33
2023-02-03T20:54:46.290Z,38.98
2023-02-03T20:59:49.233Z,39.16
2023-02-03T21:05:00.760Z,39.21
2023-02-03T21:10:11.737Z,38.78
2023-02-03T21:15:19.342Z,39.14
2023-02-03T21:20:25.662Z,39.11
2023-02-03T21:25:31.173Z,39.22
2023-02-03T21:30:35.067Z,39.30
2023-02-03T21:35:38.122Z,39.31
2023-02-03T21:40:42.268Z,39.04
2023-02-03T21:45:45.304Z,39.61
2023-02-03T21:50:48.154Z,39.26
2023-02-03T21:55:52.414Z,39.10
2023-02-03T22:00:55.732Z,39.58
2023-02-03T22:06:14.578Z,39.36
2023-02-03T22:11:19.490Z,39.42
2023-02-03T22:16:22.466Z,39.73
2023-02-03T22:21:25.282Z,39.59
2023-02-03T22:26:29.415Z,39.89
2023-02-03T22:31:32.346Z,39.71
2023-02-03T22:36:35.170Z,39.69
2023-02-03T22:41:39.312Z,39.80
2023-02-03T22:46:42.151Z,40.09
2023-02-03T22:51:44.904Z,39.86
2023-02-03T22:56:49.161Z,39.82
2023-02-03T23:01:52.206Z,40.25
2023-02-03T23:06:54.979Z,39.91
2023-02-03T23:11:59.208Z,40.84
2023-02-03T23:17:01.953Z,40.77
2023-02-03T23:22:04.774Z,40.72
2023-02-03T23:27:09.446Z,40.75
2023-02-03T23:32:12.209Z,40.71
2023-02-03T23:37:15.026Z,40.61
2023-02-03T23:42:19.220Z,40.48
2023-02-03T23:47:21.965Z,41.13
2023-02-03T23:52:24.824Z,41.16
2023-02-03T23:57:29.040Z,41.17
